This is the latest recevied weather packets stored in our database for station/object N7AWM. If no packets are shown the sender has not sent any weather packets the latest 10 day(s).
| Time | Temp. | Humidity | Pressure | Rain* | Wind** | Luminosity | Snow |
|---|---|---|---|---|---|---|---|
| 1777820377 | 17.78° C | 54% | 1010.9 hPa | 0 mm | - | - | - |
| 1777819537 | 16.67° C | 54% | 1011 hPa | 0 mm | - | - | - |
| 1777818697 | 16.11° C | 54% | 1011 hPa | 0 mm | - | - | - |
| 1777817857 | 15.56° C | 55% | 1011 hPa | 0 mm | - | - | - |
| 1777817017 | 15.56° C | 56% | 1010.8 hPa | 0 mm | - | - | - |
| 1777816177 | 13.89° C | 57% | 1010.6 hPa | 0 mm | - | - | - |
| 1777815337 | 12.78° C | 63% | 1010.7 hPa | 0 mm | - | - | - |
| 1777814498 | 12.78° C | 61% | 1010.7 hPa | 0 mm | - | - | - |
| 1777813658 | 12.78° C | 59% | 1010.6 hPa | 0 mm | - | - | - |
| 1777812818 | 11.67° C | 63% | 1010.5 hPa | 0 mm | - | - | - |
| 1777811978 | 11.67° C | 61% | 1010.6 hPa | 0 mm | - | - | - |
| 1777811138 | 12.78° C | 58% | 1010.6 hPa | 0 mm | - | - | - |
| 1777810298 | 11.67° C | 62% | 1010.6 hPa | 0 mm | - | - | - |
| 1777809458 | 11.67° C | 63% | 1010.5 hPa | 0 mm | - | - | - |
| 1777808618 | 11.67° C | 61% | 1010.6 hPa | 0 mm | - | - | - |
| 1777807778 | 13.33° C | 58% | 1010.8 hPa | 0 mm | - | - | - |
| 1777806938 | 12.78° C | 59% | 1010.6 hPa | 0 mm | - | - | - |
| 1777806098 | 12.22° C | 62% | 1010.6 hPa | 0 mm | - | - | - |
| 1777805258 | 12.22° C | 60% | 1010.5 hPa | 0 mm | - | - | - |
| 1777804418 | 12.78° C | 59% | 1010.5 hPa | 0 mm | - | - | - |
| 1777803578 | 13.33° C | 58% | 1010.5 hPa | 0 mm | - | - | - |
| 1777802738 | 13.89° C | 56% | 1010.5 hPa | 0 mm | - | - | - |
| 1777801898 | 13.89° C | 55% | 1010.5 hPa | 0 mm | - | - | - |
| 1777801059 | 15° C | 53% | 1010.6 hPa | 0 mm | - | - | - |
| 1777800219 | 15.56° C | 51% | 1010.6 hPa | 0 mm | - | - | - |
* Rain latest hour (hover to see other rain measurements)
** Current wind speed in m/s (hover to see current wind gust speed)